Time;durP1;ratioP1;P1;durP2;ratioP2;P2;SDS_P1;SDS_P2;PMS_P1;PMS_P2;Temp;Humidity;BMP_temperature;BMP_pressure;BME280_temperature;BME280_humidity;BME280_pressure;Samples;Min_cycle;Max_cycle;Signal;HPM_P1;HPM_P2
2022/03/30 00:00:11;;;;;;;28.40;8.77;;;8.80;82.50;;;;;;5073485;28;20181;-66
2022/03/30 00:02:36;;;;;;;18.23;9.03;;;8.90;82.60;;;;;;5079784;28;20476;-67
2022/03/30 00:05:02;;;;;;;17.53;7.47;;;8.90;82.60;;;;;;5068097;28;20422;-66
2022/03/30 00:07:31;;;;;;;30.27;8.60;;;8.90;82.70;;;;;;5070672;28;20181;-66
2022/03/30 00:09:58;;;;;;;22.53;9.40;;;8.90;82.90;;;;;;5075102;28;20411;-67
2022/03/30 00:12:24;;;;;;;19.17;7.67;;;8.90;83.00;;;;;;5074120;28;20798;-64
2022/03/30 00:14:51;;;;;;;21.23;8.60;;;8.90;83.10;;;;;;5078811;28;20413;-66
2022/03/30 00:17:17;;;;;;;30.77;8.70;;;8.90;82.60;;;;;;5076270;28;20415;-66
2022/03/30 00:19:43;;;;;;;19.87;8.57;;;8.90;83.50;;;;;;5076216;28;20501;-67
2022/03/30 00:22:09;;;;;;;24.43;9.10;;;8.90;83.50;;;;;;5075971;28;20533;-65
2022/03/30 00:24:35;;;;;;;17.23;7.13;;;8.90;83.40;;;;;;5081199;28;20495;-64
2022/03/30 00:27:02;;;;;;;26.67;8.33;;;8.90;83.00;;;;;;5076352;28;20192;-66
2022/03/30 00:29:28;;;;;;;29.00;9.00;;;8.90;83.60;;;;;;5075133;28;20526;-67
2022/03/30 00:31:54;;;;;;;18.43;8.47;;;8.90;83.40;;;;;;5076123;28;20605;-66
2022/03/30 00:34:19;;;;;;;20.10;8.97;;;8.90;83.50;;;;;;5074511;28;20538;-67
2022/03/30 00:36:45;;;;;;;19.70;10.50;;;8.90;83.80;;;;;;5069055;28;20185;-67
2022/03/30 00:39:11;;;;;;;27.60;7.93;;;8.90;83.90;;;;;;5078321;28;20885;-67
2022/03/30 00:41:36;;;;;;;21.17;9.17;;;8.90;83.70;;;;;;5063619;28;20223;-65
2022/03/30 00:44:13;;;;;;;24.07;8.73;;;8.90;83.70;;;;;;5072164;28;20214;-67
2022/03/30 00:46:42;;;;;;;25.20;8.70;;;8.90;83.60;;;;;;5068502;28;20188;-65
2022/03/30 00:49:08;;;;;;;24.30;8.03;;;8.90;84.40;;;;;;5074033;28;20488;-66
2022/03/30 00:51:34;;;;;;;27.13;9.17;;;8.90;84.20;;;;;;5076731;28;20959;-65
2022/03/30 00:54:00;;;;;;;28.73;9.53;;;8.90;84.10;;;;;;5072778;28;20427;-66
2022/03/30 00:56:29;;;;;;;31.73;7.80;;;8.90;85.40;;;;;;5076150;28;20951;-67
2022/03/30 00:58:55;;;;;;;21.93;8.90;;;8.90;84.70;;;;;;5079053;28;20208;-66
2022/03/30 01:01:23;;;;;;;23.30;8.70;;;8.90;84.70;;;;;;5068935;28;20442;-65
2022/03/30 01:03:49;;;;;;;23.93;8.37;;;8.90;84.70;;;;;;5065517;28;20958;-68
2022/03/30 01:06:14;;;;;;;22.23;8.40;;;8.90;84.70;;;;;;5070912;28;20419;-67
2022/03/30 01:08:40;;;;;;;14.07;7.13;;;9.00;84.40;;;;;;5075399;28;20214;-65
2022/03/30 01:11:09;;;;;;;20.47;8.80;;;9.00;84.30;;;;;;5075712;28;20637;-65
2022/03/30 01:13:35;;;;;;;22.10;8.10;;;8.90;84.80;;;;;;5077968;28;20216;-67
2022/03/30 01:16:02;;;;;;;26.63;9.07;;;8.90;84.90;;;;;;5075517;28;21008;-65
2022/03/30 01:18:28;;;;;;;22.57;9.00;;;8.90;84.60;;;;;;5071698;28;20209;-68
2022/03/30 01:20:54;;;;;;;23.00;8.83;;;8.90;84.60;;;;;;5078250;28;20462;-67
2022/03/30 01:23:19;;;;;;;28.53;8.47;;;8.90;84.70;;;;;;5078123;28;20437;-66
2022/03/30 01:25:45;;;;;;;27.87;8.13;;;8.90;85.20;;;;;;5084617;28;20194;-67
2022/03/30 01:28:12;;;;;;;24.70;8.70;;;8.90;84.80;;;;;;5072540;28;20188;-67
2022/03/30 01:33:21;;;;;;;16.97;8.03;;;8.90;83.80;;;;;;5084844;28;20566;-66
2022/03/30 01:35:47;;;;;;;25.07;9.23;;;8.90;84.30;;;;;;5072409;28;20455;-65
2022/03/30 01:38:13;;;;;;;19.10;8.10;;;8.90;85.50;;;;;;5070318;28;20211;-64
2022/03/30 01:40:39;;;;;;;20.07;8.47;;;8.80;85.80;;;;;;5068598;28;20197;-66
2022/03/30 01:43:05;;;;;;;17.67;8.37;;;8.80;85.30;;;;;;5078551;28;20911;-67
2022/03/30 01:45:31;;;;;;;15.50;7.13;;;8.80;85.30;;;;;;5073494;28;20183;-67
2022/03/30 01:47:58;;;;;;;26.87;8.80;;;8.80;85.50;;;;;;5071603;28;20430;-68
2022/03/30 01:50:25;;;;;;;24.37;8.90;;;8.80;85.80;;;;;;5079906;28;20209;-65
2022/03/30 01:52:51;;;;;;;22.90;8.00;;;8.80;85.50;;;;;;5087069;28;20422;-66
2022/03/30 01:55:17;;;;;;;18.07;8.37;;;8.80;85.60;;;;;;5076393;28;20473;-65
2022/03/30 01:57:44;;;;;;;22.30;8.67;;;8.80;86.50;;;;;;5077277;28;20855;-66
2022/03/30 02:00:11;;;;;;;17.03;7.60;;;8.70;86.90;;;;;;5081418;28;20461;-66
2022/03/30 02:02:38;;;;;;;20.43;9.27;;;8.80;86.30;;;;;;5078868;28;20421;-66
2022/03/30 02:05:05;;;;;;;24.73;8.77;;;8.80;86.00;;;;;;5077291;28;20427;-65
2022/03/30 02:07:31;;;;;;;18.63;8.60;;;8.80;86.10;;;;;;5084858;28;20469;-65
2022/03/30 02:09:56;;;;;;;18.27;8.33;;;8.80;86.80;;;;;;5076786;28;20462;-65
2022/03/30 02:12:22;;;;;;;17.73;7.50;;;8.70;87.80;;;;;;5068800;28;20231;-64
2022/03/30 02:14:51;;;;;;;18.03;8.33;;;8.80;87.90;;;;;;5067922;28;20181;-66
2022/03/30 02:17:18;;;;;;;15.40;6.97;;;8.80;87.20;;;;;;5080461;28;20221;-66
2022/03/30 02:19:45;;;;;;;27.13;9.30;;;8.80;86.90;;;;;;5081660;28;20512;-66
2022/03/30 02:22:10;;;;;;;21.33;9.40;;;8.80;86.70;;;;;;5074146;28;20827;-66
2022/03/30 02:24:36;;;;;;;18.50;8.00;;;8.90;86.90;;;;;;5086733;28;20434;-66
2022/03/30 02:27:02;;;;;;;25.77;8.37;;;8.90;86.70;;;;;;5080295;28;20193;-66
2022/03/30 02:29:28;;;;;;;16.47;8.33;;;8.90;86.90;;;;;;5079973;28;20275;-66
2022/03/30 02:31:55;;;;;;;18.27;7.50;;;8.90;86.50;;;;;;5081691;28;20892;-66
2022/03/30 02:34:21;;;;;;;22.43;9.13;;;9.00;87.40;;;;;;5069899;28;20184;-66
2022/03/30 02:36:48;;;;;;;23.97;8.43;;;8.90;87.80;;;;;;5077268;28;20466;-64
2022/03/30 02:39:15;;;;;;;25.93;9.13;;;8.90;87.70;;;;;;5086052;28;20911;-65
2022/03/30 02:41:41;;;;;;;33.33;9.70;;;8.90;87.50;;;;;;5081732;28;20511;-67
2022/03/30 02:44:08;;;;;;;16.40;7.57;;;8.80;87.50;;;;;;5072433;28;20427;-66
2022/03/30 02:46:34;;;;;;;21.87;8.90;;;8.80;88.20;;;;;;5079406;28;20410;-66
2022/03/30 02:49:00;;;;;;;25.40;8.20;;;8.70;88.00;;;;;;5076420;28;20496;-66
2022/03/30 02:51:27;;;;;;;15.30;8.77;;;8.70;89.30;;;;;;5078333;28;20462;-66
2022/03/30 02:53:54;;;;;;;22.23;8.33;;;8.60;90.50;;;;;;5080429;28;20188;-66
2022/03/30 02:56:19;;;;;;;20.70;9.13;;;8.60;90.70;;;;;;5073648;28;20427;-66
2022/03/30 02:58:45;;;;;;;21.13;9.77;;;8.50;91.30;;;;;;5072373;28;20511;-66
2022/03/30 03:01:10;;;;;;;18.63;9.37;;;8.50;91.90;;;;;;5068469;28;20251;-66
2022/03/30 03:03:36;;;;;;;18.97;8.40;;;8.50;91.60;;;;;;5086807;28;20181;-66
2022/03/30 03:06:02;;;;;;;26.37;9.97;;;8.60;91.90;;;;;;5069282;28;20200;-66
2022/03/30 03:08:28;;;;;;;22.50;8.40;;;8.60;92.30;;;;;;5074734;28;20427;-66
2022/03/30 03:10:54;;;;;;;32.43;8.67;;;8.60;92.40;;;;;;5070649;28;20873;-65
2022/03/30 03:13:20;;;;;;;27.77;8.10;;;8.50;92.30;;;;;;5086563;28;20230;-64
2022/03/30 03:15:47;;;;;;;19.50;8.80;;;8.50;92.30;;;;;;5091082;28;20196;-65
2022/03/30 03:18:13;;;;;;;26.10;10.50;;;8.50;92.50;;;;;;5092712;28;20488;-66
2022/03/30 03:20:42;;;;;;;18.67;8.00;;;8.60;92.30;;;;;;5086761;28;20467;-67
2022/03/30 03:23:09;;;;;;;29.43;10.20;;;8.60;92.90;;;;;;5099427;28;20462;-67
2022/03/30 03:25:35;;;;;;;28.43;8.20;;;8.60;93.10;;;;;;5087146;28;20427;-66
2022/03/30 03:28:01;;;;;;;17.20;8.53;;;8.60;93.10;;;;;;5092572;28;20431;-66
2022/03/30 03:30:28;;;;;;;18.70;9.13;;;8.60;93.20;;;;;;5077782;28;20957;-65
2022/03/30 03:32:54;;;;;;;22.67;8.67;;;8.60;93.20;;;;;;5085242;28;20203;-66
2022/03/30 03:35:20;;;;;;;27.77;9.97;;;8.60;93.00;;;;;;5078164;28;20469;-66
2022/03/30 03:37:46;;;;;;;22.93;9.77;;;8.60;93.30;;;;;;5075033;28;20583;-66
2022/03/30 03:40:12;;;;;;;25.33;9.43;;;8.60;93.10;;;;;;5076340;28;20948;-66
2022/03/30 03:42:38;;;;;;;30.23;10.50;;;8.60;93.80;;;;;;5073054;28;20283;-67
2022/03/30 03:45:05;;;;;;;18.97;8.50;;;8.50;94.00;;;;;;5070218;28;20423;-66
2022/03/30 03:47:31;;;;;;;24.00;9.17;;;8.50;94.80;;;;;;5067431;28;20430;-65
2022/03/30 03:49:57;;;;;;;24.23;9.00;;;8.50;94.50;;;;;;5078443;28;21233;-66
2022/03/30 03:52:23;;;;;;;26.63;8.67;;;8.40;94.40;;;;;;5074053;28;20418;-65
2022/03/30 03:54:48;;;;;;;23.67;10.40;;;8.40;94.40;;;;;;5073227;28;20593;-65
2022/03/30 03:57:14;;;;;;;20.23;8.40;;;8.50;94.20;;;;;;5076344;28;20185;-64
2022/03/30 03:59:40;;;;;;;25.77;8.70;;;8.50;94.00;;;;;;5071232;28;20252;-65
2022/03/30 04:02:07;;;;;;;31.70;9.20;;;8.50;93.90;;;;;;5069291;28;20209;-65
2022/03/30 04:04:33;;;;;;;33.73;8.90;;;8.50;93.80;;;;;;5069648;28;20204;-64
2022/03/30 04:06:59;;;;;;;21.80;6.63;;;8.40;93.80;;;;;;5075862;28;20466;-65
2022/03/30 04:09:24;;;;;;;21.40;7.53;;;8.40;93.80;;;;;;5077276;28;20462;-65
2022/03/30 04:11:50;;;;;;;19.20;8.33;;;8.40;93.80;;;;;;5068831;28;20209;-65
2022/03/30 04:14:17;;;;;;;22.13;8.07;;;8.30;94.10;;;;;;5067834;28;20620;-66
2022/03/30 04:16:43;;;;;;;23.03;9.30;;;8.20;94.30;;;;;;5062374;28;20442;-63
2022/03/30 04:19:09;;;;;;;27.47;8.80;;;8.20;94.70;;;;;;5062311;28;20466;-65
2022/03/30 04:21:35;;;;;;;22.30;7.10;;;8.20;94.80;;;;;;5074919;28;20474;-67
2022/03/30 04:24:00;;;;;;;22.93;7.40;;;8.20;95.00;;;;;;5067961;28;20192;-67
2022/03/30 04:26:26;;;;;;;22.37;9.27;;;8.10;95.10;;;;;;5070939;28;20189;-67
2022/03/30 04:28:51;;;;;;;30.13;7.67;;;8.10;95.40;;;;;;5062335;28;20197;-66
2022/03/30 04:31:17;;;;;;;41.67;9.90;;;8.10;95.70;;;;;;5066476;28;20211;-67
2022/03/30 04:33:43;;;;;;;37.00;8.30;;;8.00;96.10;;;;;;5071822;28;20262;-66
2022/03/30 04:36:08;;;;;;;23.63;8.23;;;8.00;96.30;;;;;;5076216;28;20284;-67
2022/03/30 04:38:34;;;;;;;21.73;8.13;;;7.90;96.60;;;;;;5076904;28;20204;-65
2022/03/30 04:41:00;;;;;;;31.90;9.13;;;7.80;97.00;;;;;;5078957;28;20299;-67
2022/03/30 04:43:27;;;;;;;25.43;9.37;;;7.80;97.60;;;;;;5069482;28;20185;-66
2022/03/30 04:45:54;;;;;;;20.20;7.50;;;7.70;98.00;;;;;;5074126;28;20426;-66
2022/03/30 04:48:21;;;;;;;31.20;8.87;;;7.60;98.40;;;;;;5071375;28;20800;-66
2022/03/30 04:50:46;;;;;;;22.10;9.93;;;7.60;99.20;;;;;;5084157;28;20532;-65
2022/03/30 04:53:12;;;;;;;34.63;7.60;;;7.50;99.60;;;;;;5070743;28;20541;-64
2022/03/30 04:55:38;;;;;;;28.67;10.43;;;7.50;99.90;;;;;;5076069;28;20437;-65
2022/03/30 04:58:04;;;;;;;40.80;7.57;;;7.50;99.90;;;;;;5073371;28;20214;-66
2022/03/30 05:00:31;;;;;;;23.20;7.40;;;7.40;99.90;;;;;;5063128;28;20204;-63
2022/03/30 05:02:57;;;;;;;26.33;8.93;;;7.40;99.90;;;;;;5069190;28;20442;-65
2022/03/30 05:05:23;;;;;;;25.27;9.00;;;7.40;99.90;;;;;;5069613;28;20571;-66
2022/03/30 05:07:49;;;;;;;30.27;9.43;;;7.40;99.90;;;;;;5080385;28;20489;-66
2022/03/30 05:10:15;;;;;;;24.77;8.17;;;7.30;99.90;;;;;;5083998;28;20994;-66
2022/03/30 05:12:41;;;;;;;30.87;9.30;;;7.30;99.90;;;;;;5070690;28;20543;-66
2022/03/30 05:15:09;;;;;;;22.03;8.00;;;7.30;99.90;;;;;;5070409;28;20413;-65
2022/03/30 05:17:40;;;;;;;29.93;11.03;;;7.30;99.90;;;;;;5074771;28;20524;-66
2022/03/30 05:20:06;;;;;;;34.77;11.17;;;7.30;99.90;;;;;;5063933;28;20801;-64
2022/03/30 05:22:33;;;;;;;31.47;10.33;;;7.30;99.90;;;;;;5073966;28;20537;-63
2022/03/30 05:25:02;;;;;;;29.37;10.50;;;7.20;99.90;;;;;;5075274;28;20431;-64
2022/03/30 05:27:28;;;;;;;32.80;11.53;;;7.20;99.90;;;;;;5087150;28;20557;-65
2022/03/30 05:29:54;;;;;;;31.47;11.97;;;7.20;99.90;;;;;;5087681;28;20528;-65
2022/03/30 05:32:19;;;;;;;30.13;10.73;;;7.20;99.90;;;;;;5078582;28;20258;-66
2022/03/30 05:34:45;;;;;;;28.00;9.50;;;7.20;99.90;;;;;;5084595;28;20611;-66
2022/03/30 05:37:11;;;;;;;24.73;10.53;;;7.20;99.90;;;;;;5075760;28;20592;-66
2022/03/30 05:39:41;;;;;;;24.80;11.33;;;7.20;99.90;;;;;;5072323;28;20205;-66
2022/03/30 05:42:17;;;;;;;32.90;12.80;;;7.20;99.90;;;;;;5069037;28;20470;-67
2022/03/30 05:44:43;;;;;;;30.03;11.40;;;7.20;99.90;;;;;;5069300;28;20423;-66
2022/03/30 05:47:09;;;;;;;23.10;10.37;;;7.20;99.90;;;;;;5083785;28;20858;-65
2022/03/30 05:49:36;;;;;;;26.10;10.10;;;7.20;99.90;;;;;;5073158;28;20834;-64
2022/03/30 05:52:03;;;;;;;22.03;11.50;;;7.20;99.90;;;;;;5072545;28;20520;-64
2022/03/30 05:54:28;;;;;;;36.37;11.47;;;7.20;99.90;;;;;;5088474;28;20524;-67
2022/03/30 05:57:00;;;;;;;62.30;11.27;;;7.20;99.90;;;;;;5082630;28;20591;-67
2022/03/30 05:59:29;;;;;;;28.90;10.30;;;7.20;99.90;;;;;;5078127;28;20315;-67
2022/03/30 06:01:56;;;;;;;30.83;9.03;;;7.20;99.90;;;;;;5068512;28;20534;-67
2022/03/30 06:04:22;;;;;;;25.67;10.07;;;7.20;99.90;;;;;;5079482;28;21354;-66
2022/03/30 06:06:50;;;;;;;26.43;8.50;;;7.20;99.90;;;;;;5075660;28;20479;-67
2022/03/30 06:09:16;;;;;;;21.27;8.60;;;7.20;99.90;;;;;;5058462;28;20894;-67
2022/03/30 06:11:42;;;;;;;30.70;10.80;;;7.20;99.90;;;;;;5080152;28;20567;-67
2022/03/30 06:14:07;;;;;;;23.97;10.10;;;7.20;99.90;;;;;;5075742;28;20521;-66
2022/03/30 06:16:33;;;;;;;27.20;9.13;;;7.20;99.90;;;;;;5073622;28;20185;-65
2022/03/30 06:18:59;;;;;;;29.73;9.13;;;7.30;99.90;;;;;;5075802;28;20366;-67
2022/03/30 06:21:25;;;;;;;38.97;10.40;;;7.30;99.90;;;;;;5080623;28;20220;-67
2022/03/30 06:23:51;;;;;;;24.57;8.97;;;7.20;99.90;;;;;;5075881;28;20200;-64
2022/03/30 06:26:17;;;;;;;26.23;8.23;;;7.20;99.90;;;;;;5073952;28;20768;-65
2022/03/30 06:28:42;;;;;;;27.97;8.50;;;7.30;99.90;;;;;;5059788;28;20612;-66
2022/03/30 06:31:12;;;;;;;22.20;8.03;;;7.30;99.90;;;;;;5075112;28;20235;-67
2022/03/30 06:33:38;;;;;;;19.17;7.83;;;7.30;99.90;;;;;;5069022;28;20503;-66
2022/03/30 06:36:05;;;;;;;16.73;7.53;;;7.30;99.90;;;;;;5085813;28;20433;-66
2022/03/30 06:38:30;;;;;;;24.60;7.33;;;7.30;99.90;;;;;;5059937;28;20672;-66
2022/03/30 06:40:56;;;;;;;17.30;5.93;;;7.40;99.90;;;;;;5061690;28;20889;-65
2022/03/30 06:43:22;;;;;;;17.93;8.20;;;7.40;99.90;;;;;;5075768;28;20184;-66
2022/03/30 06:45:47;;;;;;;27.00;9.50;;;7.40;99.90;;;;;;5078314;28;20191;-66
2022/03/30 06:48:13;;;;;;;27.43;8.23;;;7.40;99.90;;;;;;5079649;28;20192;-66
2022/03/30 06:50:39;;;;;;;18.63;8.33;;;7.50;99.90;;;;;;5076708;28;20277;-65
2022/03/30 06:53:10;;;;;;;19.33;7.63;;;7.40;99.90;;;;;;5075730;28;20558;-66
2022/03/30 06:55:38;;;;;;;17.83;6.90;;;7.40;99.90;;;;;;5075242;28;20183;-66
2022/03/30 06:58:04;;;;;;;15.97;5.80;;;7.40;99.90;;;;;;5073445;28;20467;-65
2022/03/30 07:00:30;;;;;;;20.13;7.20;;;7.50;99.90;;;;;;5076725;28;20491;-64
2022/03/30 07:02:56;;;;;;;15.50;7.13;;;7.60;99.90;;;;;;5059377;28;20435;-66
2022/03/30 07:05:25;;;;;;;30.03;6.67;;;7.60;99.90;;;;;;5063797;28;20907;-67
2022/03/30 07:10:35;;;;;;;22.13;6.90;;;7.60;99.90;;;;;;5082136;28;20437;-65
2022/03/30 07:13:03;;;;;;;24.00;6.93;;;7.60;99.90;;;;;;5086715;28;20426;-64
2022/03/30 07:15:30;;;;;;;23.47;8.57;;;7.60;99.90;;;;;;5066987;28;20180;-66
2022/03/30 07:17:58;;;;;;;31.57;7.67;;;7.60;99.90;;;;;;5074589;28;20476;-67
2022/03/30 07:20:26;;;;;;;25.73;6.57;;;7.60;99.90;;;;;;5066469;28;20473;-66
2022/03/30 07:22:52;;;;;;;21.63;7.82;;;7.60;99.90;;;;;;5070797;28;20452;-67
2022/03/30 07:25:20;;;;;;;27.13;7.67;;;7.60;99.90;;;;;;5079415;28;20825;-63
2022/03/30 07:27:51;;;;;;;33.67;7.47;;;7.60;99.90;;;;;;5076835;28;20940;-66
2022/03/30 07:30:19;;;;;;;19.47;7.73;;;7.60;99.90;;;;;;5078018;28;20458;-66
2022/03/30 07:32:47;;;;;;;45.40;8.27;;;7.70;99.90;;;;;;5080513;28;21235;-65
2022/03/30 07:35:15;;;;;;;32.67;7.37;;;7.70;99.90;;;;;;5078357;28;20431;-64
2022/03/30 07:37:41;;;;;;;24.93;7.13;;;7.70;99.90;;;;;;5076675;28;20505;-66
2022/03/30 07:40:09;;;;;;;23.10;9.00;;;7.80;99.90;;;;;;5075124;28;20502;-68
2022/03/30 07:42:35;;;;;;;18.93;7.47;;;7.70;99.90;;;;;;5066443;28;20418;-65
2022/03/30 07:45:03;;;;;;;23.27;6.80;;;7.80;99.90;;;;;;5074594;28;20434;-66
2022/03/30 07:47:31;;;;;;;15.80;6.97;;;7.80;99.90;;;;;;5077972;28;20177;-65
2022/03/30 07:49:57;;;;;;;33.60;6.90;;;7.80;99.90;;;;;;5076740;28;20431;-64
2022/03/30 07:52:23;;;;;;;35.13;7.10;;;7.90;99.90;;;;;;5058844;28;21031;-65
2022/03/30 07:54:52;;;;;;;14.67;7.07;;;7.90;99.90;;;;;;5083248;28;20525;-65
2022/03/30 07:57:20;;;;;;;20.47;7.23;;;7.90;99.90;;;;;;5069696;28;20431;-65
2022/03/30 07:59:46;;;;;;;19.63;6.93;;;7.90;99.90;;;;;;5066313;28;20479;-64
2022/03/30 08:02:15;;;;;;;24.53;8.20;;;7.90;99.90;;;;;;5069152;28;20539;-65
2022/03/30 08:04:41;;;;;;;18.70;6.60;;;7.90;99.90;;;;;;5075590;28;20429;-64
2022/03/30 08:07:07;;;;;;;17.40;7.20;;;7.90;99.90;;;;;;5080559;28;20415;-65
2022/03/30 08:09:33;;;;;;;18.17;6.70;;;8.00;99.90;;;;;;5072471;28;21007;-65
2022/03/30 08:11:58;;;;;;;14.40;6.57;;;8.00;99.90;;;;;;5072156;28;20212;-64
2022/03/30 08:14:24;;;;;;;27.20;6.50;;;8.00;99.90;;;;;;5067636;28;20775;-66
2022/03/30 08:16:50;;;;;;;17.63;5.63;;;8.00;99.90;;;;;;5064707;28;20211;-66
2022/03/30 08:19:15;;;;;;;17.33;6.57;;;8.00;99.90;;;;;;5068696;28;20723;-63
2022/03/30 08:24:26;;;;;;;13.00;5.20;;;8.20;99.90;;;;;;5071054;28;20211;-65
2022/03/30 08:26:51;;;;;;;19.33;6.03;;;8.20;99.90;;;;;;5062090;28;20431;-65
2022/03/30 08:29:17;;;;;;;27.77;8.23;;;8.20;99.90;;;;;;5082289;28;20543;-65
2022/03/30 08:31:43;;;;;;;37.73;6.40;;;8.40;99.90;;;;;;5072343;28;20263;-65
2022/03/30 08:34:09;;;;;;;20.03;6.80;;;8.40;99.90;;;;;;5073806;28;20192;-65
2022/03/30 08:36:34;;;;;;;22.57;7.37;;;8.50;99.90;;;;;;5075835;28;20423;-66
2022/03/30 08:39:05;;;;;;;23.33;8.73;;;8.60;99.90;;;;;;5078674;28;20250;-66
2022/03/30 08:41:31;;;;;;;16.67;6.53;;;8.60;99.90;;;;;;5066896;28;20228;-66
2022/03/30 08:43:59;;;;;;;19.23;5.93;;;8.60;99.90;;;;;;5069658;28;20425;-66
2022/03/30 08:46:25;;;;;;;13.50;5.60;;;8.60;99.90;;;;;;5060608;28;20530;-65
2022/03/30 08:48:51;;;;;;;16.57;5.00;;;8.70;99.90;;;;;;5079260;28;20544;-67
2022/03/30 08:51:18;;;;;;;28.23;6.97;;;8.70;99.90;;;;;;5075570;28;20208;-66
2022/03/30 08:53:45;;;;;;;21.00;6.60;;;8.70;99.90;;;;;;5078755;28;20245;-66
2022/03/30 08:56:11;;;;;;;23.90;6.73;;;8.80;99.90;;;;;;5072486;28;20419;-65
2022/03/30 08:58:37;;;;;;;21.43;6.80;;;8.80;99.90;;;;;;5078449;28;20535;-65
2022/03/30 09:01:11;;;;;;;12.40;5.73;;;8.70;99.90;;;;;;5080837;28;20223;-65
2022/03/30 09:03:54;;;;;;;18.70;5.37;;;8.80;99.90;;;;;;5081422;28;20266;-66
2022/03/30 09:06:47;;;;;;;19.43;6.67;;;8.80;99.90;;;;;;5077075;28;20425;-66
2022/03/30 09:09:15;;;;;;;35.67;6.33;;;8.80;99.90;;;;;;5083549;28;20426;-67
2022/03/30 09:11:40;;;;;;;18.13;6.00;;;8.80;99.90;;;;;;5084876;28;20442;-66
2022/03/30 09:14:08;;;;;;;21.03;5.23;;;8.80;99.90;;;;;;5077368;28;20596;-66
2022/03/30 09:16:41;;;;;;;31.27;5.97;;;8.80;99.90;;;;;;5073705;28;20662;-67
2022/03/30 09:19:08;;;;;;;19.97;5.67;;;8.90;99.90;;;;;;5072317;28;20470;-64
2022/03/30 09:21:47;;;;;;;17.17;5.37;;;8.90;99.90;;;;;;5076430;28;20505;-67
2022/03/30 09:24:16;;;;;;;23.63;5.80;;;8.90;99.90;;;;;;5073530;28;20456;-65
2022/03/30 09:26:43;;;;;;;15.73;5.10;;;9.00;99.90;;;;;;5063749;28;20468;-66
2022/03/30 09:29:10;;;;;;;17.00;5.53;;;9.00;99.90;;;;;;5073865;28;20418;-66
2022/03/30 09:31:41;;;;;;;13.03;5.40;;;9.10;99.90;;;;;;5055565;28;20475;-65
2022/03/30 09:34:09;;;;;;;22.63;6.23;;;9.10;99.90;;;;;;5060310;28;20445;-65
2022/03/30 09:36:40;;;;;;;15.50;4.87;;;9.30;99.90;;;;;;5071142;28;20506;-65
2022/03/30 09:39:09;;;;;;;18.97;5.40;;;9.20;99.90;;;;;;5069467;28;20660;-65
2022/03/30 09:41:50;;;;;;;23.50;6.27;;;9.20;99.90;;;;;;5070738;28;20550;-66
2022/03/30 09:44:16;;;;;;;14.47;5.67;;;9.20;99.90;;;;;;5069887;28;20506;-66
2022/03/30 09:47:05;;;;;;;16.23;5.67;;;9.30;99.90;;;;;;5076922;28;20495;-65
2022/03/30 09:49:38;;;;;;;17.27;5.00;;;9.20;99.90;;;;;;5072548;28;21054;-65
2022/03/30 09:52:33;;;;;;;16.07;5.23;;;9.30;99.90;;;;;;5063290;28;20451;-64
2022/03/30 09:55:00;;;;;;;17.90;5.67;;;9.30;99.90;;;;;;5055237;28;20870;-66
2022/03/30 09:57:37;;;;;;;19.37;5.30;;;9.40;99.90;;;;;;5078185;28;20534;-66
2022/03/30 10:00:18;;;;;;;19.00;4.80;;;9.60;99.90;;;;;;5078072;28;20885;-66
2022/03/30 10:02:51;;;;;;;15.53;4.93;;;9.80;99.90;;;;;;5084336;28;20916;-65
2022/03/30 10:05:22;;;;;;;17.13;5.40;;;9.80;99.90;;;;;;5072855;28;20561;-66
2022/03/30 10:07:50;;;;;;;9.23;4.97;;;9.90;99.90;;;;;;5073764;28;20423;-66
2022/03/30 10:10:19;;;;;;;14.40;5.20;;;9.90;99.90;;;;;;5080604;28;20443;-67
2022/03/30 10:12:45;;;;;;;17.07;6.20;;;9.90;99.90;;;;;;5076737;28;20997;-64
2022/03/30 10:15:12;;;;;;;13.70;4.93;;;9.80;99.90;;;;;;5078858;28;20429;-65
2022/03/30 10:17:38;;;;;;;12.53;4.03;;;9.80;99.90;;;;;;5084581;28;20207;-65
2022/03/30 10:20:05;;;;;;;18.20;5.23;;;9.90;99.90;;;;;;5077018;28;20465;-65
2022/03/30 10:23:00;;;;;;;14.30;4.97;;;10.00;99.90;;;;;;5087422;28;20444;-66
2022/03/30 10:25:39;;;;;;;16.07;4.67;;;10.00;99.90;;;;;;5075260;28;20514;-65
2022/03/30 10:28:43;;;;;;;15.37;5.07;;;10.10;99.90;;;;;;5075078;28;20437;-64
2022/03/30 10:31:10;;;;;;;20.30;5.53;;;10.10;99.90;;;;;;5082514;28;20454;-66
2022/03/30 10:33:40;;;;;;;11.27;4.80;;;10.30;99.90;;;;;;5075499;28;20498;-67
2022/03/30 10:36:29;;;;;;;15.73;5.60;;;10.30;99.90;;;;;;5078483;28;20428;-68
2022/03/30 10:39:14;;;;;;;17.23;4.43;;;10.50;99.90;;;;;;5080956;28;20476;-67
2022/03/30 10:42:08;;;;;;;16.13;5.07;;;10.80;99.90;;;;;;5065573;28;20434;-67
2022/03/30 10:44:49;;;;;;;17.07;5.30;;;11.00;99.90;;;;;;5074686;28;20980;-67
2022/03/30 10:47:20;;;;;;;10.00;4.90;;;11.10;99.90;;;;;;5074970;28;20440;-65
2022/03/30 10:49:52;;;;;;;7.77;3.53;;;11.20;99.90;;;;;;5075362;28;20531;-63
2022/03/30 10:52:40;;;;;;;12.23;4.10;;;11.10;99.90;;;;;;5086026;28;20537;-64
2022/03/30 10:55:14;;;;;;;17.17;5.00;;;11.00;99.90;;;;;;5076262;28;20427;-64
2022/03/30 10:57:47;;;;;;;14.40;3.90;;;11.00;99.90;;;;;;5076011;28;20518;-66
2022/03/30 11:00:27;;;;;;;14.83;3.70;;;10.90;99.90;;;;;;5077559;28;20446;-68
2022/03/30 11:03:05;;;;;;;11.43;4.73;;;10.80;99.90;;;;;;5086829;28;20432;-67
2022/03/30 11:05:30;;;;;;;15.73;4.77;;;10.70;99.90;;;;;;5062840;28;20443;-65
2022/03/30 11:07:56;;;;;;;11.87;3.73;;;10.70;99.90;;;;;;5073119;28;21143;-65
2022/03/30 11:10:23;;;;;;;14.60;4.10;;;10.50;99.90;;;;;;5079270;28;20211;-65
2022/03/30 11:13:24;;;;;;;9.93;4.00;;;10.50;99.90;;;;;;5069085;28;20684;-64
2022/03/30 11:15:59;;;;;;;17.90;6.13;;;10.60;99.90;;;;;;5050352;28;20451;-66
2022/03/30 11:18:27;;;;;;;13.87;5.57;;;10.50;99.90;;;;;;5084981;28;20980;-66
2022/03/30 11:21:19;;;;;;;13.23;5.20;;;10.50;99.90;;;;;;5076358;28;20459;-67
2022/03/30 11:23:55;;;;;;;13.87;6.30;;;10.60;99.90;;;;;;5070343;28;20518;-68
2022/03/30 11:26:22;;;;;;;16.73;5.50;;;10.60;99.90;;;;;;5065220;28;20430;-66
2022/03/30 11:28:48;;;;;;;12.53;4.43;;;10.70;99.90;;;;;;5074889;28;20419;-65
2022/03/30 11:31:21;;;;;;;15.87;5.53;;;10.70;99.90;;;;;;5079231;28;20455;-66
2022/03/30 11:34:25;;;;;;;19.37;6.57;;;10.80;99.90;;;;;;5069627;28;20280;-66
2022/03/30 11:36:53;;;;;;;12.60;6.10;;;10.80;99.90;;;;;;5073482;28;21298;-65
2022/03/30 11:39:30;;;;;;;18.43;5.60;;;10.70;99.90;;;;;;5082018;28;20989;-65
2022/03/30 11:41:58;;;;;;;41.13;5.03;;;10.70;99.90;;;;;;5073084;28;20435;-66
2022/03/30 11:47:16;;;;;;;13.70;5.23;;;10.60;99.90;;;;;;5074346;28;20421;-66
2022/03/30 11:49:56;;;;;;;19.33;5.50;;;10.60;99.90;;;;;;5083829;28;20441;-65
2022/03/30 11:52:23;;;;;;;15.03;5.03;;;10.60;99.90;;;;;;5077055;28;20505;-65
2022/03/30 11:54:53;;;;;;;11.40;4.37;;;10.60;99.90;;;;;;5075796;28;20498;-66
2022/03/30 11:57:21;;;;;;;13.40;5.87;;;10.70;99.90;;;;;;5074242;28;20793;-66
2022/03/30 11:59:55;;;;;;;10.67;4.07;;;10.80;99.90;;;;;;5077927;28;20471;-65
2022/03/30 12:02:22;;;;;;;14.47;4.70;;;10.90;99.90;;;;;;5080350;28;20418;-66
2022/03/30 12:04:48;;;;;;;11.90;6.10;;;11.00;99.90;;;;;;5084648;28;20834;-67
2022/03/30 12:07:19;;;;;;;16.20;6.27;;;11.00;99.90;;;;;;5065897;28;20971;-67
2022/03/30 12:09:54;;;;;;;14.03;5.90;;;11.10;99.90;;;;;;5080662;28;20980;-68
2022/03/30 12:12:35;;;;;;;8.03;5.10;;;11.00;99.90;;;;;;5081349;28;20561;-66
2022/03/30 12:15:06;;;;;;;10.40;6.07;;;11.00;99.90;;;;;;5081016;28;20513;-65
2022/03/30 12:17:33;;;;;;;18.10;6.53;;;11.00;99.90;;;;;;5072904;28;20419;-68
2022/03/30 12:20:02;;;;;;;30.83;7.37;;;11.00;99.90;;;;;;5073415;28;20467;-67
2022/03/30 12:22:29;;;;;;;10.70;5.73;;;11.20;99.90;;;;;;5066463;28;20654;-65
2022/03/30 12:24:55;;;;;;;12.80;5.70;;;11.40;99.90;;;;;;5082189;28;20414;-67
2022/03/30 12:27:21;;;;;;;18.37;5.90;;;11.60;99.90;;;;;;5074063;28;20969;-66
2022/03/30 12:29:47;;;;;;;10.27;5.03;;;11.70;99.90;;;;;;5080710;28;20422;-67
2022/03/30 12:32:15;;;;;;;14.47;6.63;;;11.70;99.90;;;;;;5075610;28;20239;-68
2022/03/30 12:34:47;;;;;;;9.80;4.37;;;11.70;99.90;;;;;;5077130;28;20626;-67
2022/03/30 12:37:22;;;;;;;12.70;5.20;;;11.70;99.90;;;;;;5070883;28;20419;-66
2022/03/30 12:39:47;;;;;;;12.13;4.80;;;11.80;99.90;;;;;;5077104;28;20454;-67
2022/03/30 12:42:25;;;;;;;20.63;5.87;;;11.90;99.90;;;;;;5077469;28;20819;-68
2022/03/30 12:44:56;;;;;;;14.53;6.50;;;11.80;99.90;;;;;;5073490;28;20188;-68
2022/03/30 12:47:32;;;;;;;16.83;5.90;;;11.70;99.90;;;;;;5083336;28;20419;-66
2022/03/30 12:50:10;;;;;;;14.93;5.47;;;11.50;99.90;;;;;;5077172;28;20418;-67
2022/03/30 12:52:38;;;;;;;11.53;5.30;;;11.30;99.90;;;;;;5063658;28;20426;-68
2022/03/30 12:55:20;;;;;;;10.07;4.77;;;10.90;99.90;;;;;;5065013;28;20419;-67
2022/03/30 12:58:02;;;;;;;8.37;5.10;;;10.50;99.90;;;;;;5065191;28;20512;-68
2022/03/30 13:00:31;;;;;;;8.83;4.87;;;10.10;99.90;;;;;;5071009;28;20438;-67